sensor_id;sensor_type;location;lat;lon;timestamp;temperature;humidity
26342;DHT22;14054;50.108;8.640;2023-12-20T00:00:17;5.00;99.90
26342;DHT22;14054;50.108;8.640;2023-12-20T00:02:43;5.00;99.90
26342;DHT22;14054;50.108;8.640;2023-12-20T00:05:13;5.00;99.90
26342;DHT22;14054;50.108;8.640;2023-12-20T00:07:39;5.00;99.90
26342;DHT22;14054;50.108;8.640;2023-12-20T00:10:05;5.00;99.90
26342;DHT22;14054;50.108;8.640;2023-12-20T00:12:30;5.00;99.90
26342;DHT22;14054;50.108;8.640;2023-12-20T00:14:56;5.10;99.90
26342;DHT22;14054;50.108;8.640;2023-12-20T00:17:21;5.00;99.90
26342;DHT22;14054;50.108;8.640;2023-12-20T00:19:47;5.00;99.90
26342;DHT22;14054;50.108;8.640;2023-12-20T00:22:12;5.00;99.90
26342;DHT22;14054;50.108;8.640;2023-12-20T00:24:38;5.10;99.90
26342;DHT22;14054;50.108;8.640;2023-12-20T00:27:03;5.00;99.90
26342;DHT22;14054;50.108;8.640;2023-12-20T00:29:29;5.00;99.90
26342;DHT22;14054;50.108;8.640;2023-12-20T00:31:55;5.00;99.90
26342;DHT22;14054;50.108;8.640;2023-12-20T00:34:20;5.00;99.90
26342;DHT22;14054;50.108;8.640;2023-12-20T00:36:46;5.00;99.90
26342;DHT22;14054;50.108;8.640;2023-12-20T00:39:12;5.00;99.90
26342;DHT22;14054;50.108;8.640;2023-12-20T00:41:38;5.00;99.90
26342;DHT22;14054;50.108;8.640;2023-12-20T00:44:04;5.00;99.90
26342;DHT22;14054;50.108;8.640;2023-12-20T00:46:30;5.00;99.90
26342;DHT22;14054;50.108;8.640;2023-12-20T00:48:55;5.00;99.90
26342;DHT22;14054;50.108;8.640;2023-12-20T00:51:22;5.00;99.90
26342;DHT22;14054;50.108;8.640;2023-12-20T00:53:49;5.00;99.90
26342;DHT22;14054;50.108;8.640;2023-12-20T00:56:15;5.00;99.90
26342;DHT22;14054;50.108;8.640;2023-12-20T00:58:41;5.00;99.90
26342;DHT22;14054;50.108;8.640;2023-12-20T01:01:06;5.00;99.90
26342;DHT22;14054;50.108;8.640;2023-12-20T01:03:32;5.00;99.90
26342;DHT22;14054;50.108;8.640;2023-12-20T01:05:57;5.00;99.90
26342;DHT22;14054;50.108;8.640;2023-12-20T01:08:26;5.00;99.90
26342;DHT22;14054;50.108;8.640;2023-12-20T01:10:52;5.00;99.90
26342;DHT22;14054;50.108;8.640;2023-12-20T01:13:17;5.00;99.90
26342;DHT22;14054;50.108;8.640;2023-12-20T01:15:43;5.00;99.90
26342;DHT22;14054;50.108;8.640;2023-12-20T01:18:08;5.00;99.90
26342;DHT22;14054;50.108;8.640;2023-12-20T01:20:34;5.00;99.90
26342;DHT22;14054;50.108;8.640;2023-12-20T01:22:59;5.00;99.90
26342;DHT22;14054;50.108;8.640;2023-12-20T01:25:25;4.90;99.90
26342;DHT22;14054;50.108;8.640;2023-12-20T01:27:50;4.90;99.90
26342;DHT22;14054;50.108;8.640;2023-12-20T01:30:16;5.00;99.90
26342;DHT22;14054;50.108;8.640;2023-12-20T01:32:41;5.00;99.90
26342;DHT22;14054;50.108;8.640;2023-12-20T01:35:07;5.00;99.90
26342;DHT22;14054;50.108;8.640;2023-12-20T01:37:33;4.90;99.90
26342;DHT22;14054;50.108;8.640;2023-12-20T01:39:58;4.90;99.90
26342;DHT22;14054;50.108;8.640;2023-12-20T01:42:24;4.90;99.90
26342;DHT22;14054;50.108;8.640;2023-12-20T01:44:49;4.90;99.90
26342;DHT22;14054;50.108;8.640;2023-12-20T01:47:15;5.00;99.90
26342;DHT22;14054;50.108;8.640;2023-12-20T01:49:41;4.90;99.90
26342;DHT22;14054;50.108;8.640;2023-12-20T01:52:08;5.00;99.90
26342;DHT22;14054;50.108;8.640;2023-12-20T01:54:34;4.90;99.90
26342;DHT22;14054;50.108;8.640;2023-12-20T01:57:01;5.00;99.90
26342;DHT22;14054;50.108;8.640;2023-12-20T01:59:28;5.00;99.90
26342;DHT22;14054;50.108;8.640;2023-12-20T02:01:55;5.00;99.90
26342;DHT22;14054;50.108;8.640;2023-12-20T02:04:20;5.00;99.90
26342;DHT22;14054;50.108;8.640;2023-12-20T02:06:46;5.00;99.90
26342;DHT22;14054;50.108;8.640;2023-12-20T02:09:12;5.00;99.90
26342;DHT22;14054;50.108;8.640;2023-12-20T02:11:38;4.90;99.90
26342;DHT22;14054;50.108;8.640;2023-12-20T02:14:04;5.00;99.90
26342;DHT22;14054;50.108;8.640;2023-12-20T02:16:30;5.00;99.90
26342;DHT22;14054;50.108;8.640;2023-12-20T02:18:55;5.00;99.90
26342;DHT22;14054;50.108;8.640;2023-12-20T02:21:33;5.00;99.90
26342;DHT22;14054;50.108;8.640;2023-12-20T02:24:00;5.00;99.90
26342;DHT22;14054;50.108;8.640;2023-12-20T02:26:25;5.00;99.90
26342;DHT22;14054;50.108;8.640;2023-12-20T02:28:51;5.00;99.90
26342;DHT22;14054;50.108;8.640;2023-12-20T02:31:21;5.00;99.90
26342;DHT22;14054;50.108;8.640;2023-12-20T02:33:47;5.00;99.90
26342;DHT22;14054;50.108;8.640;2023-12-20T02:36:12;5.00;99.90
26342;DHT22;14054;50.108;8.640;2023-12-20T02:38:38;5.00;99.90
26342;DHT22;14054;50.108;8.640;2023-12-20T02:41:03;4.90;99.90
26342;DHT22;14054;50.108;8.640;2023-12-20T02:43:29;4.90;99.90
26342;DHT22;14054;50.108;8.640;2023-12-20T02:45:54;4.90;99.90
26342;DHT22;14054;50.108;8.640;2023-12-20T02:48:20;5.00;99.90
26342;DHT22;14054;50.108;8.640;2023-12-20T02:50:47;5.00;99.90
26342;DHT22;14054;50.108;8.640;2023-12-20T02:53:14;4.90;99.90
26342;DHT22;14054;50.108;8.640;2023-12-20T02:55:40;5.00;99.90
26342;DHT22;14054;50.108;8.640;2023-12-20T02:58:05;5.00;99.90
26342;DHT22;14054;50.108;8.640;2023-12-20T03:00:31;4.90;99.90
26342;DHT22;14054;50.108;8.640;2023-12-20T03:02:56;4.90;99.90
26342;DHT22;14054;50.108;8.640;2023-12-20T03:05:22;4.90;99.90
26342;DHT22;14054;50.108;8.640;2023-12-20T03:07:47;5.00;99.90
26342;DHT22;14054;50.108;8.640;2023-12-20T03:10:13;4.90;99.90
26342;DHT22;14054;50.108;8.640;2023-12-20T03:12:39;5.00;99.90
26342;DHT22;14054;50.108;8.640;2023-12-20T03:15:04;5.00;99.90
26342;DHT22;14054;50.108;8.640;2023-12-20T03:17:30;5.00;99.90
26342;DHT22;14054;50.108;8.640;2023-12-20T03:19:56;5.00;99.90
26342;DHT22;14054;50.108;8.640;2023-12-20T03:22:22;5.00;99.90
26342;DHT22;14054;50.108;8.640;2023-12-20T03:24:47;5.00;99.90
26342;DHT22;14054;50.108;8.640;2023-12-20T03:27:13;5.00;99.90
26342;DHT22;14054;50.108;8.640;2023-12-20T03:29:38;5.00;99.90
26342;DHT22;14054;50.108;8.640;2023-12-20T03:32:04;5.00;99.90
26342;DHT22;14054;50.108;8.640;2023-12-20T03:34:30;5.00;99.90
26342;DHT22;14054;50.108;8.640;2023-12-20T03:36:55;5.00;99.90
26342;DHT22;14054;50.108;8.640;2023-12-20T03:39:21;5.00;99.90
26342;DHT22;14054;50.108;8.640;2023-12-20T03:41:46;5.00;99.90
26342;DHT22;14054;50.108;8.640;2023-12-20T03:44:12;5.00;99.90
26342;DHT22;14054;50.108;8.640;2023-12-20T03:46:38;5.00;99.90
26342;DHT22;14054;50.108;8.640;2023-12-20T03:49:03;5.00;99.90
26342;DHT22;14054;50.108;8.640;2023-12-20T03:51:29;5.10;99.90
26342;DHT22;14054;50.108;8.640;2023-12-20T03:53:54;5.10;99.90
26342;DHT22;14054;50.108;8.640;2023-12-20T03:56:20;5.10;99.90
26342;DHT22;14054;50.108;8.640;2023-12-20T03:58:45;5.10;99.90
26342;DHT22;14054;50.108;8.640;2023-12-20T04:01:11;5.10;99.90
26342;DHT22;14054;50.108;8.640;2023-12-20T04:03:39;5.10;99.90
26342;DHT22;14054;50.108;8.640;2023-12-20T04:06:05;5.10;99.90
26342;DHT22;14054;50.108;8.640;2023-12-20T04:08:31;5.10;99.90
26342;DHT22;14054;50.108;8.640;2023-12-20T04:10:56;5.10;99.90
26342;DHT22;14054;50.108;8.640;2023-12-20T04:13:22;5.10;99.90
26342;DHT22;14054;50.108;8.640;2023-12-20T04:15:47;5.10;99.90
26342;DHT22;14054;50.108;8.640;2023-12-20T04:18:15;5.10;99.90
26342;DHT22;14054;50.108;8.640;2023-12-20T04:20:41;5.10;99.90
26342;DHT22;14054;50.108;8.640;2023-12-20T04:23:06;5.10;99.90
26342;DHT22;14054;50.108;8.640;2023-12-20T04:25:32;5.10;99.90
26342;DHT22;14054;50.108;8.640;2023-12-20T04:27:57;5.10;99.90
26342;DHT22;14054;50.108;8.640;2023-12-20T04:30:23;5.10;99.90
26342;DHT22;14054;50.108;8.640;2023-12-20T04:32:48;5.10;99.90
26342;DHT22;14054;50.108;8.640;2023-12-20T04:35:14;5.10;99.90
26342;DHT22;14054;50.108;8.640;2023-12-20T04:37:39;5.10;99.90
26342;DHT22;14054;50.108;8.640;2023-12-20T04:40:05;5.10;99.90
26342;DHT22;14054;50.108;8.640;2023-12-20T04:42:31;5.10;99.90
26342;DHT22;14054;50.108;8.640;2023-12-20T04:44:57;5.10;99.90
26342;DHT22;14054;50.108;8.640;2023-12-20T04:47:22;5.10;99.90
26342;DHT22;14054;50.108;8.640;2023-12-20T04:49:48;5.10;99.90
26342;DHT22;14054;50.108;8.640;2023-12-20T04:52:14;5.10;99.90
26342;DHT22;14054;50.108;8.640;2023-12-20T04:54:40;5.10;99.90
26342;DHT22;14054;50.108;8.640;2023-12-20T04:57:05;5.10;99.90
26342;DHT22;14054;50.108;8.640;2023-12-20T04:59:31;5.00;99.90
26342;DHT22;14054;50.108;8.640;2023-12-20T05:01:56;5.00;99.90
26342;DHT22;14054;50.108;8.640;2023-12-20T05:04:23;5.10;99.90
26342;DHT22;14054;50.108;8.640;2023-12-20T05:06:48;5.10;99.90
26342;DHT22;14054;50.108;8.640;2023-12-20T05:09:15;5.10;99.90
26342;DHT22;14054;50.108;8.640;2023-12-20T05:11:41;5.10;99.90
26342;DHT22;14054;50.108;8.640;2023-12-20T05:14:06;5.10;99.90
26342;DHT22;14054;50.108;8.640;2023-12-20T05:16:32;5.10;99.90
26342;DHT22;14054;50.108;8.640;2023-12-20T05:18:58;5.20;99.90
26342;DHT22;14054;50.108;8.640;2023-12-20T05:21:26;5.20;99.90
26342;DHT22;14054;50.108;8.640;2023-12-20T05:23:51;5.20;99.90
26342;DHT22;14054;50.108;8.640;2023-12-20T05:26:17;5.20;99.90
26342;DHT22;14054;50.108;8.640;2023-12-20T05:28:42;5.10;99.90
26342;DHT22;14054;50.108;8.640;2023-12-20T05:31:08;5.10;99.90
26342;DHT22;14054;50.108;8.640;2023-12-20T05:33:34;5.10;99.90
26342;DHT22;14054;50.108;8.640;2023-12-20T05:36:00;5.00;99.90
26342;DHT22;14054;50.108;8.640;2023-12-20T05:38:25;5.00;99.90
26342;DHT22;14054;50.108;8.640;2023-12-20T05:40:51;5.00;99.90
26342;DHT22;14054;50.108;8.640;2023-12-20T05:43:16;5.00;99.90
26342;DHT22;14054;50.108;8.640;2023-12-20T05:45:42;5.10;99.90
26342;DHT22;14054;50.108;8.640;2023-12-20T05:48:07;5.10;99.90
26342;DHT22;14054;50.108;8.640;2023-12-20T05:50:33;5.20;99.90
26342;DHT22;14054;50.108;8.640;2023-12-20T05:53:00;5.10;99.90
26342;DHT22;14054;50.108;8.640;2023-12-20T05:55:25;5.10;99.90
26342;DHT22;14054;50.108;8.640;2023-12-20T05:57:51;5.10;99.90
26342;DHT22;14054;50.108;8.640;2023-12-20T06:00:17;5.10;99.90
26342;DHT22;14054;50.108;8.640;2023-12-20T06:02:43;5.00;99.90
26342;DHT22;14054;50.108;8.640;2023-12-20T06:05:08;5.00;99.90
26342;DHT22;14054;50.108;8.640;2023-12-20T06:07:34;5.00;99.90
26342;DHT22;14054;50.108;8.640;2023-12-20T06:09:59;5.00;99.90
26342;DHT22;14054;50.108;8.640;2023-12-20T06:12:25;5.00;99.90
26342;DHT22;14054;50.108;8.640;2023-12-20T06:14:52;4.90;99.90
26342;DHT22;14054;50.108;8.640;2023-12-20T06:17:17;4.90;99.90
26342;DHT22;14054;50.108;8.640;2023-12-20T06:19:43;4.80;99.90
26342;DHT22;14054;50.108;8.640;2023-12-20T06:22:10;4.80;99.90
26342;DHT22;14054;50.108;8.640;2023-12-20T06:24:36;4.80;99.90
26342;DHT22;14054;50.108;8.640;2023-12-20T06:27:01;4.80;99.90
26342;DHT22;14054;50.108;8.640;2023-12-20T06:29:28;4.70;99.90
26342;DHT22;14054;50.108;8.640;2023-12-20T06:31:53;4.60;99.90
26342;DHT22;14054;50.108;8.640;2023-12-20T06:34:19;4.60;99.90
26342;DHT22;14054;50.108;8.640;2023-12-20T06:36:44;4.50;99.90
26342;DHT22;14054;50.108;8.640;2023-12-20T06:39:10;4.60;99.90
26342;DHT22;14054;50.108;8.640;2023-12-20T06:41:38;4.60;99.90
26342;DHT22;14054;50.108;8.640;2023-12-20T06:44:03;4.60;99.90
26342;DHT22;14054;50.108;8.640;2023-12-20T06:46:29;4.60;99.90
26342;DHT22;14054;50.108;8.640;2023-12-20T06:48:54;4.60;99.90
26342;DHT22;14054;50.108;8.640;2023-12-20T06:51:20;4.60;99.90
26342;DHT22;14054;50.108;8.640;2023-12-20T06:53:46;4.50;99.90
26342;DHT22;14054;50.108;8.640;2023-12-20T06:56:12;4.50;99.90
26342;DHT22;14054;50.108;8.640;2023-12-20T06:58:41;4.60;99.90
26342;DHT22;14054;50.108;8.640;2023-12-20T07:01:11;4.60;99.90
26342;DHT22;14054;50.108;8.640;2023-12-20T07:03:37;4.60;99.90
26342;DHT22;14054;50.108;8.640;2023-12-20T07:06:03;4.60;99.90
26342;DHT22;14054;50.108;8.640;2023-12-20T07:08:28;4.70;99.90
26342;DHT22;14054;50.108;8.640;2023-12-20T07:10:54;4.70;99.90
26342;DHT22;14054;50.108;8.640;2023-12-20T07:13:19;4.80;99.90
26342;DHT22;14054;50.108;8.640;2023-12-20T07:15:45;4.80;99.90
26342;DHT22;14054;50.108;8.640;2023-12-20T07:18:11;4.80;99.90
26342;DHT22;14054;50.108;8.640;2023-12-20T07:20:36;4.90;99.90
26342;DHT22;14054;50.108;8.640;2023-12-20T07:23:02;4.90;99.90
26342;DHT22;14054;50.108;8.640;2023-12-20T07:25:28;4.90;99.90
26342;DHT22;14054;50.108;8.640;2023-12-20T07:27:53;4.90;99.90
26342;DHT22;14054;50.108;8.640;2023-12-20T07:30:19;4.90;99.90
26342;DHT22;14054;50.108;8.640;2023-12-20T07:32:44;5.00;99.90
26342;DHT22;14054;50.108;8.640;2023-12-20T07:35:10;4.90;99.90
26342;DHT22;14054;50.108;8.640;2023-12-20T07:37:35;4.90;99.90
26342;DHT22;14054;50.108;8.640;2023-12-20T07:40:01;4.90;99.90
26342;DHT22;14054;50.108;8.640;2023-12-20T07:42:26;4.90;99.90
26342;DHT22;14054;50.108;8.640;2023-12-20T07:44:52;4.80;99.90
26342;DHT22;14054;50.108;8.640;2023-12-20T07:47:17;4.80;99.90
26342;DHT22;14054;50.108;8.640;2023-12-20T07:49:48;4.80;99.90
26342;DHT22;14054;50.108;8.640;2023-12-20T07:52:13;4.80;99.90
26342;DHT22;14054;50.108;8.640;2023-12-20T07:54:39;4.80;99.90
26342;DHT22;14054;50.108;8.640;2023-12-20T07:57:05;4.90;99.90
26342;DHT22;14054;50.108;8.640;2023-12-20T07:59:30;5.00;99.90
26342;DHT22;14054;50.108;8.640;2023-12-20T08:01:56;5.00;99.90
26342;DHT22;14054;50.108;8.640;2023-12-20T08:04:21;5.10;99.90
26342;DHT22;14054;50.108;8.640;2023-12-20T08:06:48;5.10;99.90
26342;DHT22;14054;50.108;8.640;2023-12-20T08:09:14;5.20;99.90
26342;DHT22;14054;50.108;8.640;2023-12-20T08:11:45;5.30;99.90
26342;DHT22;14054;50.108;8.640;2023-12-20T08:14:11;5.40;99.90
26342;DHT22;14054;50.108;8.640;2023-12-20T08:16:36;5.30;99.90
26342;DHT22;14054;50.108;8.640;2023-12-20T08:19:02;5.30;99.90
26342;DHT22;14054;50.108;8.640;2023-12-20T08:21:27;5.30;99.90
26342;DHT22;14054;50.108;8.640;2023-12-20T08:23:53;5.30;99.90
26342;DHT22;14054;50.108;8.640;2023-12-20T08:26:19;5.30;99.90
26342;DHT22;14054;50.108;8.640;2023-12-20T08:28:50;5.30;99.90
26342;DHT22;14054;50.108;8.640;2023-12-20T08:31:16;5.40;99.90
26342;DHT22;14054;50.108;8.640;2023-12-20T08:33:46;5.40;99.90
26342;DHT22;14054;50.108;8.640;2023-12-20T08:36:12;5.30;99.90
26342;DHT22;14054;50.108;8.640;2023-12-20T08:38:39;5.30;99.90
26342;DHT22;14054;50.108;8.640;2023-12-20T08:41:05;5.30;99.90
26342;DHT22;14054;50.108;8.640;2023-12-20T08:43:34;5.30;99.90
26342;DHT22;14054;50.108;8.640;2023-12-20T08:46:01;5.30;99.90
26342;DHT22;14054;50.108;8.640;2023-12-20T08:48:26;5.40;99.90
26342;DHT22;14054;50.108;8.640;2023-12-20T08:50:52;5.60;99.90
26342;DHT22;14054;50.108;8.640;2023-12-20T08:53:20;5.60;99.90
26342;DHT22;14054;50.108;8.640;2023-12-20T08:55:47;5.60;99.90
26342;DHT22;14054;50.108;8.640;2023-12-20T08:58:12;5.60;99.90
26342;DHT22;14054;50.108;8.640;2023-12-20T09:00:38;5.50;99.90
26342;DHT22;14054;50.108;8.640;2023-12-20T09:03:04;5.50;99.90
26342;DHT22;14054;50.108;8.640;2023-12-20T09:05:30;5.50;99.90
26342;DHT22;14054;50.108;8.640;2023-12-20T09:07:55;5.60;99.90
26342;DHT22;14054;50.108;8.640;2023-12-20T09:10:21;5.80;99.90
26342;DHT22;14054;50.108;8.640;2023-12-20T09:12:53;5.80;99.90
26342;DHT22;14054;50.108;8.640;2023-12-20T09:15:25;5.80;99.90
26342;DHT22;14054;50.108;8.640;2023-12-20T09:17:50;5.80;99.90
26342;DHT22;14054;50.108;8.640;2023-12-20T09:20:16;5.80;99.90
26342;DHT22;14054;50.108;8.640;2023-12-20T09:22:42;5.80;99.90
26342;DHT22;14054;50.108;8.640;2023-12-20T09:25:09;5.80;99.90
26342;DHT22;14054;50.108;8.640;2023-12-20T09:27:35;5.80;99.90
26342;DHT22;14054;50.108;8.640;2023-12-20T09:30:01;5.80;99.90
26342;DHT22;14054;50.108;8.640;2023-12-20T09:32:26;5.90;99.90
26342;DHT22;14054;50.108;8.640;2023-12-20T09:34:52;5.90;99.90
26342;DHT22;14054;50.108;8.640;2023-12-20T09:37:17;5.90;99.90
26342;DHT22;14054;50.108;8.640;2023-12-20T09:39:43;5.90;99.90
26342;DHT22;14054;50.108;8.640;2023-12-20T09:42:11;6.00;99.90
26342;DHT22;14054;50.108;8.640;2023-12-20T09:44:37;6.00;99.90
26342;DHT22;14054;50.108;8.640;2023-12-20T09:47:06;6.00;99.90
26342;DHT22;14054;50.108;8.640;2023-12-20T09:49:33;6.10;99.90
26342;DHT22;14054;50.108;8.640;2023-12-20T09:52:00;6.10;99.90
26342;DHT22;14054;50.108;8.640;2023-12-20T09:54:26;6.20;99.90
26342;DHT22;14054;50.108;8.640;2023-12-20T09:56:52;6.20;99.90
26342;DHT22;14054;50.108;8.640;2023-12-20T09:59:17;6.20;99.90
26342;DHT22;14054;50.108;8.640;2023-12-20T10:01:43;6.60;99.90
26342;DHT22;14054;50.108;8.640;2023-12-20T10:04:10;6.20;99.90
26342;DHT22;14054;50.108;8.640;2023-12-20T10:06:41;6.30;99.90
26342;DHT22;14054;50.108;8.640;2023-12-20T10:09:08;6.30;99.90
26342;DHT22;14054;50.108;8.640;2023-12-20T10:11:35;6.40;99.90
26342;DHT22;14054;50.108;8.640;2023-12-20T10:14:03;6.40;99.90
26342;DHT22;14054;50.108;8.640;2023-12-20T10:16:28;6.40;99.90
26342;DHT22;14054;50.108;8.640;2023-12-20T10:18:54;6.40;99.90
26342;DHT22;14054;50.108;8.640;2023-12-20T10:21:21;6.50;99.90
26342;DHT22;14054;50.108;8.640;2023-12-20T10:23:48;6.50;99.90
26342;DHT22;14054;50.108;8.640;2023-12-20T10:26:22;6.60;99.90
26342;DHT22;14054;50.108;8.640;2023-12-20T10:28:56;6.70;99.90
26342;DHT22;14054;50.108;8.640;2023-12-20T10:31:27;6.80;99.90
26342;DHT22;14054;50.108;8.640;2023-12-20T10:33:53;6.80;99.90
26342;DHT22;14054;50.108;8.640;2023-12-20T10:36:18;6.80;99.90
26342;DHT22;14054;50.108;8.640;2023-12-20T10:38:44;6.70;99.90
26342;DHT22;14054;50.108;8.640;2023-12-20T10:41:11;6.80;99.90
26342;DHT22;14054;50.108;8.640;2023-12-20T10:43:38;7.00;99.90
26342;DHT22;14054;50.108;8.640;2023-12-20T10:46:05;7.40;99.90
26342;DHT22;14054;50.108;8.640;2023-12-20T10:48:32;7.70;99.90
26342;DHT22;14054;50.108;8.640;2023-12-20T10:50:58;8.00;99.90
26342;DHT22;14054;50.108;8.640;2023-12-20T10:53:25;8.20;99.90
26342;DHT22;14054;50.108;8.640;2023-12-20T10:55:52;8.40;99.90
26342;DHT22;14054;50.108;8.640;2023-12-20T10:58:20;8.60;99.90
26342;DHT22;14054;50.108;8.640;2023-12-20T11:00:47;8.70;99.90
26342;DHT22;14054;50.108;8.640;2023-12-20T11:03:17;8.90;99.90
26342;DHT22;14054;50.108;8.640;2023-12-20T11:08:14;9.10;99.90
26342;DHT22;14054;50.108;8.640;2023-12-20T11:10:56;10.60;99.90
26342;DHT22;14054;50.108;8.640;2023-12-20T11:13:31;11.70;99.90
26342;DHT22;14054;50.108;8.640;2023-12-20T11:15:57;12.60;99.90
26342;DHT22;14054;50.108;8.640;2023-12-20T11:18:31;13.20;99.90
26342;DHT22;14054;50.108;8.640;2023-12-20T11:21:05;13.20;99.90
26342;DHT22;14054;50.108;8.640;2023-12-20T11:23:32;13.60;99.90
26342;DHT22;14054;50.108;8.640;2023-12-20T11:25:59;13.80;99.90
26342;DHT22;14054;50.108;8.640;2023-12-20T11:28:26;14.10;99.90
26342;DHT22;14054;50.108;8.640;2023-12-20T11:30:59;13.60;99.40
26342;DHT22;14054;50.108;8.640;2023-12-20T11:33:29;13.20;99.90
26342;DHT22;14054;50.108;8.640;2023-12-20T11:35:59;13.40;99.50
26342;DHT22;14054;50.108;8.640;2023-12-20T11:38:25;12.60;99.90
26342;DHT22;14054;50.108;8.640;2023-12-20T11:40:51;13.50;99.90
26342;DHT22;14054;50.108;8.640;2023-12-20T11:43:38;13.20;99.40
26342;DHT22;14054;50.108;8.640;2023-12-20T11:46:08;11.90;99.90
26342;DHT22;14054;50.108;8.640;2023-12-20T11:48:37;11.00;99.90
26342;DHT22;14054;50.108;8.640;2023-12-20T11:51:08;10.70;99.90
26342;DHT22;14054;50.108;8.640;2023-12-20T11:53:34;10.20;99.90
26342;DHT22;14054;50.108;8.640;2023-12-20T11:56:00;9.80;99.90
26342;DHT22;14054;50.108;8.640;2023-12-20T11:58:28;9.70;99.90
26342;DHT22;14054;50.108;8.640;2023-12-20T12:00:55;9.50;99.90
26342;DHT22;14054;50.108;8.640;2023-12-20T12:03:20;9.30;99.90
26342;DHT22;14054;50.108;8.640;2023-12-20T12:05:47;9.20;99.90
26342;DHT22;14054;50.108;8.640;2023-12-20T12:08:13;9.30;99.90
26342;DHT22;14054;50.108;8.640;2023-12-20T12:10:39;9.30;99.90
26342;DHT22;14054;50.108;8.640;2023-12-20T12:13:05;9.20;99.90
26342;DHT22;14054;50.108;8.640;2023-12-20T12:15:30;9.20;99.90
26342;DHT22;14054;50.108;8.640;2023-12-20T12:17:57;9.20;99.90
26342;DHT22;14054;50.108;8.640;2023-12-20T12:20:23;9.40;99.90
26342;DHT22;14054;50.108;8.640;2023-12-20T12:23:03;9.50;99.90
26342;DHT22;14054;50.108;8.640;2023-12-20T12:25:30;9.40;99.90
26342;DHT22;14054;50.108;8.640;2023-12-20T12:27:59;9.40;99.90
26342;DHT22;14054;50.108;8.640;2023-12-20T12:30:25;9.20;99.90
26342;DHT22;14054;50.108;8.640;2023-12-20T12:32:52;9.20;99.90
26342;DHT22;14054;50.108;8.640;2023-12-20T12:35:18;9.20;99.90
26342;DHT22;14054;50.108;8.640;2023-12-20T12:37:44;9.20;99.90
26342;DHT22;14054;50.108;8.640;2023-12-20T12:40:15;9.20;99.90
26342;DHT22;14054;50.108;8.640;2023-12-20T12:42:43;9.00;99.90
26342;DHT22;14054;50.108;8.640;2023-12-20T12:45:09;9.00;99.90
26342;DHT22;14054;50.108;8.640;2023-12-20T12:47:35;9.10;99.90
26342;DHT22;14054;50.108;8.640;2023-12-20T12:50:00;9.00;99.90
26342;DHT22;14054;50.108;8.640;2023-12-20T12:52:26;9.00;99.90
26342;DHT22;14054;50.108;8.640;2023-12-20T12:54:53;8.90;99.90
26342;DHT22;14054;50.108;8.640;2023-12-20T12:57:18;8.80;99.90
26342;DHT22;14054;50.108;8.640;2023-12-20T12:59:44;8.90;99.90
26342;DHT22;14054;50.108;8.640;2023-12-20T13:02:13;8.90;99.90
26342;DHT22;14054;50.108;8.640;2023-12-20T13:04:40;9.30;99.90
26342;DHT22;14054;50.108;8.640;2023-12-20T13:07:07;9.80;99.90
26342;DHT22;14054;50.108;8.640;2023-12-20T13:09:32;10.60;99.90
26342;DHT22;14054;50.108;8.640;2023-12-20T13:11:58;13.40;99.90
26342;DHT22;14054;50.108;8.640;2023-12-20T13:14:24;15.30;94.80
26342;DHT22;14054;50.108;8.640;2023-12-20T13:16:50;15.90;91.30
26342;DHT22;14054;50.108;8.640;2023-12-20T13:19:15;16.60;88.10
26342;DHT22;14054;50.108;8.640;2023-12-20T13:21:41;17.10;83.20
26342;DHT22;14054;50.108;8.640;2023-12-20T13:24:06;17.80;79.60
26342;DHT22;14054;50.108;8.640;2023-12-20T13:26:32;18.00;76.00
26342;DHT22;14054;50.108;8.640;2023-12-20T13:28:58;19.00;74.10
26342;DHT22;14054;50.108;8.640;2023-12-20T13:31:24;18.50;70.20
26342;DHT22;14054;50.108;8.640;2023-12-20T13:33:49;16.30;73.70
26342;DHT22;14054;50.108;8.640;2023-12-20T13:36:15;14.10;82.00
26342;DHT22;14054;50.108;8.640;2023-12-20T13:38:40;12.70;88.80
26342;DHT22;14054;50.108;8.640;2023-12-20T13:41:06;11.80;91.60
26342;DHT22;14054;50.108;8.640;2023-12-20T13:43:32;11.40;93.60
26342;DHT22;14054;50.108;8.640;2023-12-20T13:45:58;11.10;94.50
26342;DHT22;14054;50.108;8.640;2023-12-20T13:48:24;10.80;95.30
26342;DHT22;14054;50.108;8.640;2023-12-20T13:50:50;10.70;96.20
26342;DHT22;14054;50.108;8.640;2023-12-20T13:53:15;11.60;95.00
26342;DHT22;14054;50.108;8.640;2023-12-20T13:55:41;11.10;95.50
26342;DHT22;14054;50.108;8.640;2023-12-20T13:58:07;10.50;96.90
26342;DHT22;14054;50.108;8.640;2023-12-20T14:00:32;9.90;98.70
26342;DHT22;14054;50.108;8.640;2023-12-20T14:02:58;9.40;99.90
26342;DHT22;14054;50.108;8.640;2023-12-20T14:05:24;9.10;99.90
26342;DHT22;14054;50.108;8.640;2023-12-20T14:07:49;8.80;99.90
26342;DHT22;14054;50.108;8.640;2023-12-20T14:12:41;8.70;99.90
26342;DHT22;14054;50.108;8.640;2023-12-20T14:15:08;8.60;99.90
26342;DHT22;14054;50.108;8.640;2023-12-20T14:17:39;8.50;99.90
26342;DHT22;14054;50.108;8.640;2023-12-20T14:20:06;8.40;99.90
26342;DHT22;14054;50.108;8.640;2023-12-20T14:22:35;8.30;99.90
26342;DHT22;14054;50.108;8.640;2023-12-20T14:25:01;8.30;99.90
26342;DHT22;14054;50.108;8.640;2023-12-20T14:27:28;8.30;99.90
26342;DHT22;14054;50.108;8.640;2023-12-20T14:29:54;8.20;99.90
26342;DHT22;14054;50.108;8.640;2023-12-20T14:32:20;8.10;99.90
26342;DHT22;14054;50.108;8.640;2023-12-20T14:34:46;8.10;99.90
26342;DHT22;14054;50.108;8.640;2023-12-20T14:37:12;8.10;99.90
26342;DHT22;14054;50.108;8.640;2023-12-20T14:39:38;8.10;99.90
26342;DHT22;14054;50.108;8.640;2023-12-20T14:42:10;8.00;99.90
26342;DHT22;14054;50.108;8.640;2023-12-20T14:44:41;8.00;99.90
26342;DHT22;14054;50.108;8.640;2023-12-20T14:47:07;7.90;99.90
26342;DHT22;14054;50.108;8.640;2023-12-20T14:49:33;7.90;99.90
26342;DHT22;14054;50.108;8.640;2023-12-20T14:51:58;7.90;99.90
26342;DHT22;14054;50.108;8.640;2023-12-20T14:54:25;8.00;99.90
26342;DHT22;14054;50.108;8.640;2023-12-20T14:56:50;7.90;99.90
26342;DHT22;14054;50.108;8.640;2023-12-20T14:59:16;7.90;99.90
26342;DHT22;14054;50.108;8.640;2023-12-20T15:01:41;7.80;99.90
26342;DHT22;14054;50.108;8.640;2023-12-20T15:04:09;7.80;99.90
26342;DHT22;14054;50.108;8.640;2023-12-20T15:06:35;7.80;99.90
26342;DHT22;14054;50.108;8.640;2023-12-20T15:09:00;7.70;99.90
26342;DHT22;14054;50.108;8.640;2023-12-20T15:11:27;7.70;99.90
26342;DHT22;14054;50.108;8.640;2023-12-20T15:13:53;7.70;99.90
26342;DHT22;14054;50.108;8.640;2023-12-20T15:16:23;7.70;99.90
26342;DHT22;14054;50.108;8.640;2023-12-20T15:18:49;7.60;99.90
26342;DHT22;14054;50.108;8.640;2023-12-20T15:21:15;7.60;99.90
26342;DHT22;14054;50.108;8.640;2023-12-20T15:23:41;7.60;99.90
26342;DHT22;14054;50.108;8.640;2023-12-20T15:26:18;7.60;99.90
26342;DHT22;14054;50.108;8.640;2023-12-20T15:28:43;7.60;99.90
26342;DHT22;14054;50.108;8.640;2023-12-20T15:31:09;7.60;99.90
26342;DHT22;14054;50.108;8.640;2023-12-20T15:33:34;7.60;99.90
26342;DHT22;14054;50.108;8.640;2023-12-20T15:36:00;7.60;99.90
26342;DHT22;14054;50.108;8.640;2023-12-20T15:38:26;7.50;99.90
26342;DHT22;14054;50.108;8.640;2023-12-20T15:40:51;7.50;99.90
26342;DHT22;14054;50.108;8.640;2023-12-20T15:43:17;7.50;99.90